Eleni K II — SVCB — position and weather

sailwx.info

Track history (hours):
 
Tides and Currents Weather Stations Pressure Air Temp Water Temp Dewpoint Dewpoint Depression Visibility Wind Speed Wind Dir Waves Ship Positions

Eleni K II

Last reported at 2017-Sep-19 04:59 UTC. Time now 2017-Sep-23 00:25 UTC.
Position N 36°51' E 024°17'.

; draft 5.8 m.

Type: Cargo ship. MMSI: 240189000.

Date/timePositionNaut miles runAvg speedWind from/ knotsBaromVisibWave heightAir tempDewpointWater temp
2017-Sep-19 04:59N 36°51' E 024°17'10 8.1
2017-Sep-19 03:44N 36°60' E 024°10'2 8.1
2017-Sep-19 03:30N 37°01' E 024°09'4 8.1
2017-Sep-19 03:00N 37°04' E 024°06'4 8.1
2017-Sep-19 02:30N 37°07' E 024°02'4 8.0
2017-Sep-19 02:01N 37°11' E 023°59'5 7.9
2017-Sep-19 01:26N 37°14' E 023°56'3 7.9
2017-Sep-19 01:00N 37°17' E 023°54'4 7.9
2017-Sep-19 00:30N 37°20' E 023°51'4 8.1
2017-Sep-19 00:00N 37°23' E 023°48'4 7.9
2017-Sep-18 23:30N 37°26' E 023°44'4 7.6
2017-Sep-18 23:00N 37°29' E 023°42'4 7.8
2017-Sep-18 22:30N 37°33' E 023°38'4 7.8
2017-Sep-18 22:00N 37°36' E 023°35'4 7.8
2017-Sep-18 21:30N 37°39' E 023°32'4 7.6
2017-Sep-18 21:00N 37°39' E 023°27'4 7.7
2017-Sep-18 20:30N 37°39' E 023°23'4 7.4
2017-Sep-18 20:00N 37°40' E 023°18'4 7.4
2017-Sep-18 19:30N 37°44' E 023°17'4 8.0
2017-Sep-18 19:00N 37°47' E 023°14'4 8.1
2017-Sep-18 18:30N 37°50' E 023°11'5 7.7
2017-Sep-18 17:53N 37°53' E 023°06'16 5.1
2017-Sep-18 14:45N 38°05' E 022°53'2 6.9
2017-Sep-18 14:24N 38°07' E 022°55'  
2017-Sep-15 07:54N 38°11' E 022°59'6 7.8
2017-Sep-15 07:06N 38°06' E 022°54'12 5.6
2017-Sep-15 04:51N 37°55' E 023°01'0 0.1
2017-Sep-15 04:21N 37°55' E 023°01'0 0.0
2017-Sep-15 03:59N 37°55' E 023°01'0 0.0
2017-Sep-15 03:25N 37°55' E 023°01'0 0.0
2017-Sep-15 02:55N 37°55' E 023°01'0 0.0
2017-Sep-15 02:27N 37°55' E 023°01'0 0.0
2017-Sep-15 01:59N 37°55' E 023°01'0 0.0
2017-Sep-15 01:24N 37°55' E 023°01'0 0.0
2017-Sep-15 00:58N 37°55' E 023°01'0 0.0
2017-Sep-15 00:28N 37°55' E 023°01'0 0.0
2017-Sep-15 00:00N 37°55' E 023°01'0 0.0
2017-Sep-14 23:30N 37°55' E 023°01'0 0.1
2017-Sep-14 23:00N 37°55' E 023°01'0 0.1
2017-Sep-14 22:30N 37°55' E 023°01'0 0.0
2017-Sep-14 22:00N 37°55' E 023°01'0 0.0
2017-Sep-14 21:30N 37°55' E 023°01'0 0.0
2017-Sep-14 20:52N 37°55' E 023°01'0 0.0
2017-Sep-14 20:27N 37°55' E 023°01'0 0.0
2017-Sep-14 20:00N 37°55' E 023°01'0 0.2
2017-Sep-14 19:28N 37°55' E 023°02'3 6.6
2017-Sep-14 19:00N 37°53' E 023°05'4 7.5
2017-Sep-14 18:30N 37°54' E 023°10'4 7.9
2017-Sep-14 18:00N 37°55' E 023°14'4 7.8
2017-Sep-14 17:30N 37°56' E 023°19'4 7.8
2017-Sep-14 17:00N 37°57' E 023°24'3 5.2
2017-Sep-14 16:31N 37°60' E 023°25'4 7.6
2017-Sep-14 16:00N 38°01' E 023°30'2 3.9
2017-Sep-14 15:30N 38°03' E 023°32'0 0.0
2017-Sep-14 15:00N 38°03' E 023°32'0 0.0
2017-Sep-14 14:31N 38°03' E 023°32'0 0.0
2017-Sep-14 14:00N 38°03' E 023°32'0 0.0
2017-Sep-14 13:31N 38°03' E 023°32'0 0.0
2017-Sep-14 13:00N 38°03' E 023°32'0 0.0
2017-Sep-14 12:30N 38°03' E 023°32'0 0.0
2017-Sep-14 12:00N 38°03' E 023°32'0 0.0
2017-Sep-14 11:30N 38°03' E 023°32'0 0.0
2017-Sep-14 11:01N 38°03' E 023°32'0 0.0
2017-Sep-14 10:30N 38°03' E 023°32'0 0.0
2017-Sep-14 10:00N 38°03' E 023°32'0 0.0
2017-Sep-14 09:31N 38°03' E 023°32'0 0.0
2017-Sep-14 09:00N 38°03' E 023°32'0 0.0
2017-Sep-14 08:30N 38°03' E 023°32'0 0.0
2017-Sep-14 08:00N 38°03' E 023°32'0 0.0
2017-Sep-14 07:31N 38°03' E 023°32'0 0.0
2017-Sep-14 07:00N 38°03' E 023°32'0 0.0
2017-Sep-14 06:30N 38°03' E 023°32'0 0.0
2017-Sep-14 06:00N 38°03' E 023°32'0 0.0
2017-Sep-14 05:31N 38°03' E 023°32'0 0.0
2017-Sep-14 05:01N 38°03' E 023°32'0 0.0
2017-Sep-14 04:30N 38°03' E 023°32'0 0.0
2017-Sep-14 04:00N 38°03' E 023°32'0 0.0
2017-Sep-14 03:31N 38°03' E 023°32'0 0.0
2017-Sep-14 03:01N 38°03' E 023°32'0 0.0
2017-Sep-14 02:30N 38°03' E 023°32'0 0.0
2017-Sep-14 02:01N 38°03' E 023°32'0 0.0
2017-Sep-14 01:31N 38°03' E 023°32'0 0.0
2017-Sep-14 01:00N 38°03' E 023°32'0 0.0
2017-Sep-14 00:31N 38°03' E 023°32'0 0.0
2017-Sep-14 00:00N 38°03' E 023°32'0 0.0
2017-Sep-13 23:30N 38°03' E 023°32'0 0.0
2017-Sep-13 23:00N 38°03' E 023°32'0 0.0
2017-Sep-13 22:30N 38°03' E 023°32'0 0.0
2017-Sep-13 22:00N 38°03' E 023°32'0 0.0
2017-Sep-13 21:31N 38°03' E 023°32'1 1.9
2017-Sep-13 21:01N 38°02' E 023°31'3 6.8
2017-Sep-13 20:31N 38°00' E 023°27'2 4.7
2017-Sep-13 20:00N 37°58' E 023°26'3 6.1
2017-Sep-13 19:30N 37°56' E 023°23'3 5.8
2017-Sep-13 19:00N 37°53' E 023°23'3 6.1
2017-Sep-13 18:31N 37°51' E 023°26'2 4.6
2017-Sep-13 18:01N 37°50' E 023°29'4 7.1
2017-Sep-13 17:30N 37°50' E 023°34'4 7.6
2017-Sep-13 17:00N 37°50' E 023°38'4 7.0
2017-Sep-13 16:30N 37°47' E 023°41'4 7.4
2017-Sep-13 16:00N 37°44' E 023°43'4 7.6
2017-Sep-13 15:30N 37°41' E 023°45'4 7.5
2017-Sep-13 15:00N 37°38' E 023°49'4 7.5
2017-Sep-13 14:30N 37°36' E 023°53'4 7.5
2017-Sep-13 14:00N 37°34' E 023°56'3 7.1
2017-Sep-13 13:30N 37°31' E 023°59'  
2017-Sep-10 11:38N 37°25' E 023°59'3 8.2
2017-Sep-10 11:19N 37°27' E 023°56'7 7.8
2017-Sep-10 10:24N 37°30' E 023°48'3 7.3
2017-Sep-10 10:00N 37°32' E 023°45'4 7.4
2017-Sep-10 09:30N 37°34' E 023°41'4 7.5
2017-Sep-10 09:00N 37°35' E 023°37'4 7.5
2017-Sep-10 08:30N 37°37' E 023°33'4 7.6
2017-Sep-10 08:00N 37°39' E 023°29'4 7.8
2017-Sep-10 07:30N 37°39' E 023°24'4 7.9
2017-Sep-10 07:00N 37°40' E 023°19'4 7.7
2017-Sep-10 06:30N 37°43' E 023°16'4 8.0
2017-Sep-10 06:00N 37°47' E 023°13'4 8.1
2017-Sep-10 05:29N 37°50' E 023°11'  
Track history (hours):
 
Tides and Currents Weather Stations Pressure Air Temp Water Temp Dewpoint Dewpoint Depression Visibility Wind Speed Wind Dir Waves Ship Positions

Eleni K II

Last reported at 2017-Sep-19 04:59 UTC. Time now 2017-Sep-23 00:25 UTC.
Position N 36°51' E 024°17'.

; draft 5.8 m.

Type: Cargo ship. MMSI: 240189000.

Date/timePositionNaut miles runAvg speedWind from/ knotsBaromVisibWave heightAir tempDewpointWater temp
2017-Sep-19 04:59N 36°51' E 024°17'10 8.1
2017-Sep-19 03:44N 36°60' E 024°10'2 8.1
2017-Sep-19 03:30N 37°01' E 024°09'4 8.1
2017-Sep-19 03:00N 37°04' E 024°06'4 8.1
2017-Sep-19 02:30N 37°07' E 024°02'4 8.0
2017-Sep-19 02:01N 37°11' E 023°59'5 7.9
2017-Sep-19 01:26N 37°14' E 023°56'3 7.9
2017-Sep-19 01:00N 37°17' E 023°54'4 7.9
2017-Sep-19 00:30N 37°20' E 023°51'4 8.1
2017-Sep-19 00:00N 37°23' E 023°48'4 7.9
2017-Sep-18 23:30N 37°26' E 023°44'4 7.6
2017-Sep-18 23:00N 37°29' E 023°42'4 7.8
2017-Sep-18 22:30N 37°33' E 023°38'4 7.8
2017-Sep-18 22:00N 37°36' E 023°35'4 7.8
2017-Sep-18 21:30N 37°39' E 023°32'4 7.6
2017-Sep-18 21:00N 37°39' E 023°27'4 7.7
2017-Sep-18 20:30N 37°39' E 023°23'4 7.4
2017-Sep-18 20:00N 37°40' E 023°18'4 7.4
2017-Sep-18 19:30N 37°44' E 023°17'4 8.0
2017-Sep-18 19:00N 37°47' E 023°14'4 8.1
2017-Sep-18 18:30N 37°50' E 023°11'5 7.7
2017-Sep-18 17:53N 37°53' E 023°06'16 5.1
2017-Sep-18 14:45N 38°05' E 022°53'2 6.9
2017-Sep-18 14:24N 38°07' E 022°55'  
2017-Sep-15 07:54N 38°11' E 022°59'6 7.8
2017-Sep-15 07:06N 38°06' E 022°54'12 5.6
2017-Sep-15 04:51N 37°55' E 023°01'0 0.1
2017-Sep-15 04:21N 37°55' E 023°01'0 0.0
2017-Sep-15 03:59N 37°55' E 023°01'0 0.0
2017-Sep-15 03:25N 37°55' E 023°01'0 0.0
2017-Sep-15 02:55N 37°55' E 023°01'0 0.0
2017-Sep-15 02:27N 37°55' E 023°01'0 0.0
2017-Sep-15 01:59N 37°55' E 023°01'0 0.0
2017-Sep-15 01:24N 37°55' E 023°01'0 0.0
2017-Sep-15 00:58N 37°55' E 023°01'0 0.0
2017-Sep-15 00:28N 37°55' E 023°01'0 0.0
2017-Sep-15 00:00N 37°55' E 023°01'0 0.0
2017-Sep-14 23:30N 37°55' E 023°01'0 0.1
2017-Sep-14 23:00N 37°55' E 023°01'0 0.1
2017-Sep-14 22:30N 37°55' E 023°01'0 0.0
2017-Sep-14 22:00N 37°55' E 023°01'0 0.0
2017-Sep-14 21:30N 37°55' E 023°01'0 0.0
2017-Sep-14 20:52N 37°55' E 023°01'0 0.0
2017-Sep-14 20:27N 37°55' E 023°01'0 0.0
2017-Sep-14 20:00N 37°55' E 023°01'0 0.2
2017-Sep-14 19:28N 37°55' E 023°02'3 6.6
2017-Sep-14 19:00N 37°53' E 023°05'4 7.5
2017-Sep-14 18:30N 37°54' E 023°10'4 7.9
2017-Sep-14 18:00N 37°55' E 023°14'4 7.8
2017-Sep-14 17:30N 37°56' E 023°19'4 7.8
2017-Sep-14 17:00N 37°57' E 023°24'3 5.2
2017-Sep-14 16:31N 37°60' E 023°25'4 7.6
2017-Sep-14 16:00N 38°01' E 023°30'2 3.9
2017-Sep-14 15:30N 38°03' E 023°32'0 0.0
2017-Sep-14 15:00N 38°03' E 023°32'0 0.0
2017-Sep-14 14:31N 38°03' E 023°32'0 0.0
2017-Sep-14 14:00N 38°03' E 023°32'0 0.0
2017-Sep-14 13:31N 38°03' E 023°32'0 0.0
2017-Sep-14 13:00N 38°03' E 023°32'0 0.0
2017-Sep-14 12:30N 38°03' E 023°32'0 0.0
2017-Sep-14 12:00N 38°03' E 023°32'0 0.0
2017-Sep-14 11:30N 38°03' E 023°32'0 0.0
2017-Sep-14 11:01N 38°03' E 023°32'0 0.0
2017-Sep-14 10:30N 38°03' E 023°32'0 0.0
2017-Sep-14 10:00N 38°03' E 023°32'0 0.0
2017-Sep-14 09:31N 38°03' E 023°32'0 0.0
2017-Sep-14 09:00N 38°03' E 023°32'0 0.0
2017-Sep-14 08:30N 38°03' E 023°32'0 0.0
2017-Sep-14 08:00N 38°03' E 023°32'0 0.0
2017-Sep-14 07:31N 38°03' E 023°32'0 0.0
2017-Sep-14 07:00N 38°03' E 023°32'0 0.0
2017-Sep-14 06:30N 38°03' E 023°32'0 0.0
2017-Sep-14 06:00N 38°03' E 023°32'0 0.0
2017-Sep-14 05:31N 38°03' E 023°32'0 0.0
2017-Sep-14 05:01N 38°03' E 023°32'0 0.0
2017-Sep-14 04:30N 38°03' E 023°32'0 0.0
2017-Sep-14 04:00N 38°03' E 023°32'0 0.0
2017-Sep-14 03:31N 38°03' E 023°32'0 0.0
2017-Sep-14 03:01N 38°03' E 023°32'0 0.0
2017-Sep-14 02:30N 38°03' E 023°32'0 0.0
2017-Sep-14 02:01N 38°03' E 023°32'0 0.0
2017-Sep-14 01:31N 38°03' E 023°32'0 0.0
2017-Sep-14 01:00N 38°03' E 023°32'0 0.0
2017-Sep-14 00:31N 38°03' E 023°32'0 0.0
2017-Sep-14 00:00N 38°03' E 023°32'0 0.0
2017-Sep-13 23:30N 38°03' E 023°32'0 0.0
2017-Sep-13 23:00N 38°03' E 023°32'0 0.0
2017-Sep-13 22:30N 38°03' E 023°32'0 0.0
2017-Sep-13 22:00N 38°03' E 023°32'0 0.0
2017-Sep-13 21:31N 38°03' E 023°32'1 1.9
2017-Sep-13 21:01N 38°02' E 023°31'3 6.8
2017-Sep-13 20:31N 38°00' E 023°27'2 4.7
2017-Sep-13 20:00N 37°58' E 023°26'3 6.1
2017-Sep-13 19:30N 37°56' E 023°23'3 5.8
2017-Sep-13 19:00N 37°53' E 023°23'3 6.1
2017-Sep-13 18:31N 37°51' E 023°26'2 4.6
2017-Sep-13 18:01N 37°50' E 023°29'4 7.1
2017-Sep-13 17:30N 37°50' E 023°34'4 7.6
2017-Sep-13 17:00N 37°50' E 023°38'4 7.0
2017-Sep-13 16:30N 37°47' E 023°41'4 7.4
2017-Sep-13 16:00N 37°44' E 023°43'4 7.6
2017-Sep-13 15:30N 37°41' E 023°45'4 7.5
2017-Sep-13 15:00N 37°38' E 023°49'4 7.5
2017-Sep-13 14:30N 37°36' E 023°53'4 7.5
2017-Sep-13 14:00N 37°34' E 023°56'3 7.1
2017-Sep-13 13:30N 37°31' E 023°59'  
2017-Sep-10 11:38N 37°25' E 023°59'3 8.2
2017-Sep-10 11:19N 37°27' E 023°56'7 7.8
2017-Sep-10 10:24N 37°30' E 023°48'3 7.3
2017-Sep-10 10:00N 37°32' E 023°45'4 7.4
2017-Sep-10 09:30N 37°34' E 023°41'4 7.5
2017-Sep-10 09:00N 37°35' E 023°37'4 7.5
2017-Sep-10 08:30N 37°37' E 023°33'4 7.6
2017-Sep-10 08:00N 37°39' E 023°29'4 7.8
2017-Sep-10 07:30N 37°39' E 023°24'4 7.9
2017-Sep-10 07:00N 37°40' E 023°19'4 7.7
2017-Sep-10 06:30N 37°43' E 023°16'4 8.0
2017-Sep-10 06:00N 37°47' E 023°13'4 8.1
2017-Sep-10 05:29N 37°50' E 023°11'  

Dump ship's entire track history